Terminal Aerodrome Forecast
Issued by NWS Grand Junction, CO

Current Version | Previous Version | Text Only | Print | Product List | Glossary On
Versions: 1 2 3 4 5 6 7 8 9 10 11 12 13 14
000
FTUS45 KGJT 191120
TAFGJT
TAF
KGJT 191120Z 1912/2012 12008KT P6SM VCSH SCT050 OVC080
      TEMPO 1915/1919 -SHRA BKN050
     FM191900 31007KT P6SM VCSH SCT060 OVC090
     FM200200 12008KT P6SM VCSH FEW060 BKN100
     FM200600 10006KT P6SM SCT150=

USA.gov is the U.S. government's official web portal to all federal, state and local government web resources and services.